sensor_id;sensor_type;location;lat;lon;timestamp;pressure;altitude;pressure_sealevel;temperature;humidity
57250;BME280;43102;52.014;-0.680;2022-11-20T00:00:00;100226;;;7.82;78.09
57250;BME280;43102;52.014;-0.680;2022-11-20T00:01:16;100226;;;7.82;78.09
57250;BME280;43102;52.014;-0.680;2022-11-20T00:02:00;100226;;;7.82;78.09
57250;BME280;43102;52.014;-0.680;2022-11-20T00:03:00;100223;;;7.83;77.98
57250;BME280;43102;52.014;-0.680;2022-11-20T00:04:00;100223;;;7.83;77.98
57250;BME280;43102;52.014;-0.680;2022-11-20T00:05:00;100223;;;7.83;77.98
57250;BME280;43102;52.014;-0.680;2022-11-20T00:06:00;100223;;;7.83;77.98
57250;BME280;43102;52.014;-0.680;2022-11-20T00:07:00;100223;;;7.83;77.98
57250;BME280;43102;52.014;-0.680;2022-11-20T00:08:00;100220;;;7.84;77.88
57250;BME280;43102;52.014;-0.680;2022-11-20T00:09:00;100220;;;7.84;77.88
57250;BME280;43102;52.014;-0.680;2022-11-20T00:10:00;100220;;;7.84;77.88
57250;BME280;43102;52.014;-0.680;2022-11-20T00:11:04;100220;;;7.84;77.88
57250;BME280;43102;52.014;-0.680;2022-11-20T00:12:00;100220;;;7.84;77.88
57250;BME280;43102;52.014;-0.680;2022-11-20T00:13:00;100216;;;7.84;77.73
57250;BME280;43102;52.014;-0.680;2022-11-20T00:14:00;100216;;;7.84;77.73
57250;BME280;43102;52.014;-0.680;2022-11-20T00:15:00;100216;;;7.84;77.73
57250;BME280;43102;52.014;-0.680;2022-11-20T00:16:00;100216;;;7.84;77.73
57250;BME280;43102;52.014;-0.680;2022-11-20T00:17:00;100216;;;7.84;77.73
57250;BME280;43102;52.014;-0.680;2022-11-20T00:18:00;100210;;;7.85;77.53
57250;BME280;43102;52.014;-0.680;2022-11-20T00:19:00;100210;;;7.85;77.53
57250;BME280;43102;52.014;-0.680;2022-11-20T00:20:00;100210;;;7.85;77.53
57250;BME280;43102;52.014;-0.680;2022-11-20T00:21:01;100210;;;7.85;77.53
57250;BME280;43102;52.014;-0.680;2022-11-20T00:22:00;100210;;;7.85;77.53
57250;BME280;43102;52.014;-0.680;2022-11-20T00:23:00;100197;;;7.85;77.43
57250;BME280;43102;52.014;-0.680;2022-11-20T00:24:00;100197;;;7.85;77.43
57250;BME280;43102;52.014;-0.680;2022-11-20T00:25:00;100197;;;7.85;77.43
57250;BME280;43102;52.014;-0.680;2022-11-20T00:26:02;100197;;;7.85;77.43
57250;BME280;43102;52.014;-0.680;2022-11-20T00:27:00;100197;;;7.85;77.43
57250;BME280;43102;52.014;-0.680;2022-11-20T00:28:00;100192;;;7.84;77.39
57250;BME280;43102;52.014;-0.680;2022-11-20T00:29:00;100192;;;7.84;77.39
57250;BME280;43102;52.014;-0.680;2022-11-20T00:30:00;100192;;;7.84;77.39
57250;BME280;43102;52.014;-0.680;2022-11-20T00:31:00;100192;;;7.84;77.39
57250;BME280;43102;52.014;-0.680;2022-11-20T00:32:00;100192;;;7.84;77.39
57250;BME280;43102;52.014;-0.680;2022-11-20T00:33:00;100184;;;7.86;77.09
57250;BME280;43102;52.014;-0.680;2022-11-20T00:34:00;100184;;;7.86;77.09
57250;BME280;43102;52.014;-0.680;2022-11-20T00:35:00;100184;;;7.86;77.09
57250;BME280;43102;52.014;-0.680;2022-11-20T00:36:01;100184;;;7.86;77.09
57250;BME280;43102;52.014;-0.680;2022-11-20T00:37:00;100184;;;7.86;77.09
57250;BME280;43102;52.014;-0.680;2022-11-20T00:38:00;100182;;;7.88;76.95
57250;BME280;43102;52.014;-0.680;2022-11-20T00:39:00;100182;;;7.88;76.95
57250;BME280;43102;52.014;-0.680;2022-11-20T00:40:00;100182;;;7.88;76.95
57250;BME280;43102;52.014;-0.680;2022-11-20T00:41:01;100182;;;7.88;76.95
57250;BME280;43102;52.014;-0.680;2022-11-20T00:42:00;100182;;;7.88;76.95
57250;BME280;43102;52.014;-0.680;2022-11-20T00:43:00;100174;;;7.87;76.82
57250;BME280;43102;52.014;-0.680;2022-11-20T00:44:00;100174;;;7.87;76.82
57250;BME280;43102;52.014;-0.680;2022-11-20T00:45:00;100174;;;7.87;76.82
57250;BME280;43102;52.014;-0.680;2022-11-20T00:46:00;100174;;;7.87;76.82
57250;BME280;43102;52.014;-0.680;2022-11-20T00:47:00;100174;;;7.87;76.82
57250;BME280;43102;52.014;-0.680;2022-11-20T00:48:00;100173;;;7.87;76.82
57250;BME280;43102;52.014;-0.680;2022-11-20T00:49:00;100173;;;7.87;76.82
57250;BME280;43102;52.014;-0.680;2022-11-20T00:50:00;100173;;;7.87;76.82
57250;BME280;43102;52.014;-0.680;2022-11-20T00:51:00;100173;;;7.87;76.82
57250;BME280;43102;52.014;-0.680;2022-11-20T00:52:00;100173;;;7.87;76.82
57250;BME280;43102;52.014;-0.680;2022-11-20T00:53:00;100166;;;7.86;76.76
57250;BME280;43102;52.014;-0.680;2022-11-20T00:54:00;100166;;;7.86;76.76
57250;BME280;43102;52.014;-0.680;2022-11-20T00:55:00;100166;;;7.86;76.76
57250;BME280;43102;52.014;-0.680;2022-11-20T00:56:00;100166;;;7.86;76.76
57250;BME280;43102;52.014;-0.680;2022-11-20T00:57:00;100166;;;7.86;76.76
57250;BME280;43102;52.014;-0.680;2022-11-20T00:58:00;100157;;;7.80;76.70
57250;BME280;43102;52.014;-0.680;2022-11-20T00:59:00;100157;;;7.80;76.70
57250;BME280;43102;52.014;-0.680;2022-11-20T01:00:00;100157;;;7.80;76.70
57250;BME280;43102;52.014;-0.680;2022-11-20T01:01:02;100157;;;7.80;76.70
57250;BME280;43102;52.014;-0.680;2022-11-20T01:02:00;100157;;;7.80;76.70
57250;BME280;43102;52.014;-0.680;2022-11-20T01:03:00;100159;;;7.80;76.58
57250;BME280;43102;52.014;-0.680;2022-11-20T01:04:00;100159;;;7.80;76.58
57250;BME280;43102;52.014;-0.680;2022-11-20T01:05:00;100159;;;7.80;76.58
57250;BME280;43102;52.014;-0.680;2022-11-20T01:06:00;100159;;;7.80;76.58
57250;BME280;43102;52.014;-0.680;2022-11-20T01:07:00;100159;;;7.80;76.58
57250;BME280;43102;52.014;-0.680;2022-11-20T01:08:00;100153;;;7.80;76.52
57250;BME280;43102;52.014;-0.680;2022-11-20T01:09:01;100153;;;7.80;76.52
57250;BME280;43102;52.014;-0.680;2022-11-20T01:10:00;100153;;;7.80;76.52
57250;BME280;43102;52.014;-0.680;2022-11-20T01:11:00;100153;;;7.80;76.52
57250;BME280;43102;52.014;-0.680;2022-11-20T01:12:00;100153;;;7.80;76.52
57250;BME280;43102;52.014;-0.680;2022-11-20T01:13:00;100148;;;7.83;76.06
57250;BME280;43102;52.014;-0.680;2022-11-20T01:14:00;100148;;;7.83;76.06
57250;BME280;43102;52.014;-0.680;2022-11-20T01:15:00;100148;;;7.83;76.06
57250;BME280;43102;52.014;-0.680;2022-11-20T01:16:16;100148;;;7.83;76.06
57250;BME280;43102;52.014;-0.680;2022-11-20T01:17:00;100148;;;7.83;76.06
57250;BME280;43102;52.014;-0.680;2022-11-20T01:18:00;100145;;;7.86;75.88
57250;BME280;43102;52.014;-0.680;2022-11-20T01:19:00;100145;;;7.86;75.88
57250;BME280;43102;52.014;-0.680;2022-11-20T01:20:00;100145;;;7.86;75.88
57250;BME280;43102;52.014;-0.680;2022-11-20T01:21:00;100145;;;7.86;75.88
57250;BME280;43102;52.014;-0.680;2022-11-20T01:22:00;100145;;;7.86;75.88
57250;BME280;43102;52.014;-0.680;2022-11-20T01:23:00;100138;;;7.89;75.65
57250;BME280;43102;52.014;-0.680;2022-11-20T01:24:00;100138;;;7.89;75.65
57250;BME280;43102;52.014;-0.680;2022-11-20T01:25:00;100138;;;7.89;75.65
57250;BME280;43102;52.014;-0.680;2022-11-20T01:26:01;100138;;;7.89;75.65
57250;BME280;43102;52.014;-0.680;2022-11-20T01:27:00;100138;;;7.89;75.65
57250;BME280;43102;52.014;-0.680;2022-11-20T01:28:00;100128;;;7.92;75.48
57250;BME280;43102;52.014;-0.680;2022-11-20T01:29:00;100128;;;7.92;75.48
57250;BME280;43102;52.014;-0.680;2022-11-20T01:30:00;100128;;;7.92;75.48
57250;BME280;43102;52.014;-0.680;2022-11-20T01:31:00;100128;;;7.92;75.48
57250;BME280;43102;52.014;-0.680;2022-11-20T01:32:00;100128;;;7.92;75.48
57250;BME280;43102;52.014;-0.680;2022-11-20T01:33:00;100116;;;7.94;75.29
57250;BME280;43102;52.014;-0.680;2022-11-20T01:34:01;100116;;;7.94;75.29
57250;BME280;43102;52.014;-0.680;2022-11-20T01:35:00;100116;;;7.94;75.29
57250;BME280;43102;52.014;-0.680;2022-11-20T01:36:04;100116;;;7.94;75.29
57250;BME280;43102;52.014;-0.680;2022-11-20T01:37:00;100116;;;7.94;75.29
57250;BME280;43102;52.014;-0.680;2022-11-20T01:38:00;100106;;;7.94;74.90
57250;BME280;43102;52.014;-0.680;2022-11-20T01:39:00;100106;;;7.94;74.90
57250;BME280;43102;52.014;-0.680;2022-11-20T01:40:00;100106;;;7.94;74.90
57250;BME280;43102;52.014;-0.680;2022-11-20T01:41:00;100106;;;7.94;74.90
57250;BME280;43102;52.014;-0.680;2022-11-20T01:42:00;100106;;;7.94;74.90
57250;BME280;43102;52.014;-0.680;2022-11-20T01:43:06;100097;;;7.98;74.53
57250;BME280;43102;52.014;-0.680;2022-11-20T01:44:00;100097;;;7.98;74.53
57250;BME280;43102;52.014;-0.680;2022-11-20T01:45:00;100097;;;7.98;74.53
57250;BME280;43102;52.014;-0.680;2022-11-20T01:47:01;100097;;;7.98;74.53
57250;BME280;43102;52.014;-0.680;2022-11-20T01:48:00;100088;;;8.01;74.23
57250;BME280;43102;52.014;-0.680;2022-11-20T01:49:02;100088;;;8.01;74.23
57250;BME280;43102;52.014;-0.680;2022-11-20T01:51:00;100088;;;8.01;74.23
57250;BME280;43102;52.014;-0.680;2022-11-20T01:52:01;100088;;;8.01;74.23
57250;BME280;43102;52.014;-0.680;2022-11-20T01:53:02;100079;;;8.03;74.10
57250;BME280;43102;52.014;-0.680;2022-11-20T01:54:01;100079;;;8.03;74.10
57250;BME280;43102;52.014;-0.680;2022-11-20T01:55:02;100079;;;8.03;74.10
57250;BME280;43102;52.014;-0.680;2022-11-20T01:56:00;100079;;;8.03;74.10
57250;BME280;43102;52.014;-0.680;2022-11-20T01:57:00;100079;;;8.03;74.10
57250;BME280;43102;52.014;-0.680;2022-11-20T01:58:00;100074;;;8.05;73.97
57250;BME280;43102;52.014;-0.680;2022-11-20T01:59:00;100074;;;8.05;73.97
57250;BME280;43102;52.014;-0.680;2022-11-20T02:00:03;100074;;;8.05;73.97
57250;BME280;43102;52.014;-0.680;2022-11-20T02:01:00;100074;;;8.05;73.97
57250;BME280;43102;52.014;-0.680;2022-11-20T02:02:00;100074;;;8.05;73.97
57250;BME280;43102;52.014;-0.680;2022-11-20T02:03:01;100080;;;8.06;74.22
57250;BME280;43102;52.014;-0.680;2022-11-20T02:04:00;100080;;;8.06;74.22
57250;BME280;43102;52.014;-0.680;2022-11-20T02:05:04;100080;;;8.06;74.22
57250;BME280;43102;52.014;-0.680;2022-11-20T02:07:00;100080;;;8.06;74.22
57250;BME280;43102;52.014;-0.680;2022-11-20T02:08:00;100086;;;8.07;74.66
57250;BME280;43102;52.014;-0.680;2022-11-20T02:09:00;100086;;;8.07;74.66
57250;BME280;43102;52.014;-0.680;2022-11-20T02:10:00;100086;;;8.07;74.66
57250;BME280;43102;52.014;-0.680;2022-11-20T02:11:00;100086;;;8.07;74.66
57250;BME280;43102;52.014;-0.680;2022-11-20T02:12:00;100086;;;8.07;74.66
57250;BME280;43102;52.014;-0.680;2022-11-20T02:13:00;100070;;;8.04;75.04
57250;BME280;43102;52.014;-0.680;2022-11-20T02:14:00;100070;;;8.04;75.04
57250;BME280;43102;52.014;-0.680;2022-11-20T02:15:00;100070;;;8.04;75.04
57250;BME280;43102;52.014;-0.680;2022-11-20T02:16:00;100070;;;8.04;75.04
57250;BME280;43102;52.014;-0.680;2022-11-20T02:17:00;100070;;;8.04;75.04
57250;BME280;43102;52.014;-0.680;2022-11-20T02:18:00;100075;;;8.02;75.36
57250;BME280;43102;52.014;-0.680;2022-11-20T02:19:00;100075;;;8.02;75.36
57250;BME280;43102;52.014;-0.680;2022-11-20T02:20:00;100075;;;8.02;75.36
57250;BME280;43102;52.014;-0.680;2022-11-20T02:21:03;100075;;;8.02;75.36
57250;BME280;43102;52.014;-0.680;2022-11-20T02:22:02;100075;;;8.02;75.36
57250;BME280;43102;52.014;-0.680;2022-11-20T02:23:05;100070;;;7.98;75.81
57250;BME280;43102;52.014;-0.680;2022-11-20T02:24:01;100070;;;7.98;75.81
57250;BME280;43102;52.014;-0.680;2022-11-20T02:25:00;100070;;;7.98;75.81
57250;BME280;43102;52.014;-0.680;2022-11-20T02:26:00;100070;;;7.98;75.81
57250;BME280;43102;52.014;-0.680;2022-11-20T02:27:04;100070;;;7.98;75.81
57250;BME280;43102;52.014;-0.680;2022-11-20T02:28:00;100061;;;7.97;75.94
57250;BME280;43102;52.014;-0.680;2022-11-20T02:29:00;100061;;;7.97;75.94
57250;BME280;43102;52.014;-0.680;2022-11-20T02:30:00;100061;;;7.97;75.94
57250;BME280;43102;52.014;-0.680;2022-11-20T02:31:00;100061;;;7.97;75.94
57250;BME280;43102;52.014;-0.680;2022-11-20T02:32:00;100061;;;7.97;75.94
57250;BME280;43102;52.014;-0.680;2022-11-20T02:33:00;100054;;;7.96;76.13
57250;BME280;43102;52.014;-0.680;2022-11-20T02:34:00;100054;;;7.96;76.13
57250;BME280;43102;52.014;-0.680;2022-11-20T02:36:00;100054;;;7.96;76.13
57250;BME280;43102;52.014;-0.680;2022-11-20T02:37:00;100054;;;7.96;76.13
57250;BME280;43102;52.014;-0.680;2022-11-20T02:38:00;100045;;;7.93;76.39
57250;BME280;43102;52.014;-0.680;2022-11-20T02:39:00;100045;;;7.93;76.39
57250;BME280;43102;52.014;-0.680;2022-11-20T02:40:00;100045;;;7.93;76.39
57250;BME280;43102;52.014;-0.680;2022-11-20T02:41:00;100045;;;7.93;76.39
57250;BME280;43102;52.014;-0.680;2022-11-20T02:42:00;100045;;;7.93;76.39
57250;BME280;43102;52.014;-0.680;2022-11-20T02:43:00;100036;;;7.90;76.77
57250;BME280;43102;52.014;-0.680;2022-11-20T02:44:00;100036;;;7.90;76.77
57250;BME280;43102;52.014;-0.680;2022-11-20T02:45:00;100036;;;7.90;76.77
57250;BME280;43102;52.014;-0.680;2022-11-20T03:09:00;99996;;;7.79;77.70
57250;BME280;43102;52.014;-0.680;2022-11-20T03:10:00;99996;;;7.79;77.70
57250;BME280;43102;52.014;-0.680;2022-11-20T03:11:04;99984;;;7.77;77.85
57250;BME280;43102;52.014;-0.680;2022-11-20T03:12:00;99984;;;7.77;77.85
57250;BME280;43102;52.014;-0.680;2022-11-20T03:13:00;99984;;;7.77;77.85
57250;BME280;43102;52.014;-0.680;2022-11-20T03:14:01;99984;;;7.77;77.85
57250;BME280;43102;52.014;-0.680;2022-11-20T03:15:00;99984;;;7.77;77.85
57250;BME280;43102;52.014;-0.680;2022-11-20T03:16:08;99974;;;7.74;78.07
57250;BME280;43102;52.014;-0.680;2022-11-20T03:17:00;99974;;;7.74;78.07
57250;BME280;43102;52.014;-0.680;2022-11-20T03:18:00;99974;;;7.74;78.07
57250;BME280;43102;52.014;-0.680;2022-11-20T03:19:00;99974;;;7.74;78.07
57250;BME280;43102;52.014;-0.680;2022-11-20T03:20:00;99974;;;7.74;78.07
57250;BME280;43102;52.014;-0.680;2022-11-20T03:21:00;99960;;;7.72;78.23
57250;BME280;43102;52.014;-0.680;2022-11-20T03:23:00;99960;;;7.72;78.23
57250;BME280;43102;52.014;-0.680;2022-11-20T03:24:00;99960;;;7.72;78.23
57250;BME280;43102;52.014;-0.680;2022-11-20T03:25:00;99960;;;7.72;78.23
57250;BME280;43102;52.014;-0.680;2022-11-20T03:29:00;99952;;;7.70;78.47
57250;BME280;43102;52.014;-0.680;2022-11-20T03:30:00;99952;;;7.70;78.47
57250;BME280;43102;52.014;-0.680;2022-11-20T03:31:04;99942;;;7.67;78.85
57250;BME280;43102;52.014;-0.680;2022-11-20T03:32:00;99942;;;7.67;78.85
57250;BME280;43102;52.014;-0.680;2022-11-20T03:33:00;99942;;;7.67;78.85
57250;BME280;43102;52.014;-0.680;2022-11-20T03:34:00;99942;;;7.67;78.85
57250;BME280;43102;52.014;-0.680;2022-11-20T03:35:00;99942;;;7.67;78.85
57250;BME280;43102;52.014;-0.680;2022-11-20T03:36:02;99935;;;7.68;79.02
57250;BME280;43102;52.014;-0.680;2022-11-20T03:37:00;99935;;;7.68;79.02
57250;BME280;43102;52.014;-0.680;2022-11-20T03:38:00;99935;;;7.68;79.02
57250;BME280;43102;52.014;-0.680;2022-11-20T03:39:00;99935;;;7.68;79.02
57250;BME280;43102;52.014;-0.680;2022-11-20T03:40:00;99935;;;7.68;79.02
57250;BME280;43102;52.014;-0.680;2022-11-20T03:41:01;99921;;;7.67;79.38
57250;BME280;43102;52.014;-0.680;2022-11-20T03:42:00;99921;;;7.67;79.38
57250;BME280;43102;52.014;-0.680;2022-11-20T03:43:00;99921;;;7.67;79.38
57250;BME280;43102;52.014;-0.680;2022-11-20T03:44:01;99921;;;7.67;79.38
57250;BME280;43102;52.014;-0.680;2022-11-20T03:45:00;99921;;;7.67;79.38
57250;BME280;43102;52.014;-0.680;2022-11-20T03:46:00;99916;;;7.67;79.48
57250;BME280;43102;52.014;-0.680;2022-11-20T03:47:00;99916;;;7.67;79.48
57250;BME280;43102;52.014;-0.680;2022-11-20T03:48:00;99916;;;7.67;79.48
57250;BME280;43102;52.014;-0.680;2022-11-20T03:49:00;99916;;;7.67;79.48
57250;BME280;43102;52.014;-0.680;2022-11-20T03:50:00;99916;;;7.67;79.48
57250;BME280;43102;52.014;-0.680;2022-11-20T03:52:00;99907;;;7.69;79.58
57250;BME280;43102;52.014;-0.680;2022-11-20T03:53:00;99907;;;7.69;79.58
57250;BME280;43102;52.014;-0.680;2022-11-20T03:54:00;99907;;;7.69;79.58
57250;BME280;43102;52.014;-0.680;2022-11-20T03:55:00;99907;;;7.69;79.58
57250;BME280;43102;52.014;-0.680;2022-11-20T03:56:00;99901;;;7.69;80.08
57250;BME280;43102;52.014;-0.680;2022-11-20T03:57:00;99901;;;7.69;80.08
57250;BME280;43102;52.014;-0.680;2022-11-20T03:58:00;99901;;;7.69;80.08
57250;BME280;43102;52.014;-0.680;2022-11-20T03:59:00;99901;;;7.69;80.08
57250;BME280;43102;52.014;-0.680;2022-11-20T04:00:00;99901;;;7.69;80.08
57250;BME280;43102;52.014;-0.680;2022-11-20T04:01:04;99891;;;7.71;80.15
57250;BME280;43102;52.014;-0.680;2022-11-20T04:02:00;99891;;;7.71;80.15
57250;BME280;43102;52.014;-0.680;2022-11-20T04:03:02;99891;;;7.71;80.15
57250;BME280;43102;52.014;-0.680;2022-11-20T04:04:00;99891;;;7.71;80.15
57250;BME280;43102;52.014;-0.680;2022-11-20T04:05:00;99891;;;7.71;80.15
57250;BME280;43102;52.014;-0.680;2022-11-20T04:06:02;99881;;;7.70;80.57
57250;BME280;43102;52.014;-0.680;2022-11-20T04:07:00;99881;;;7.70;80.57
57250;BME280;43102;52.014;-0.680;2022-11-20T04:08:00;99881;;;7.70;80.57
57250;BME280;43102;52.014;-0.680;2022-11-20T04:09:00;99881;;;7.70;80.57
57250;BME280;43102;52.014;-0.680;2022-11-20T04:10:00;99881;;;7.70;80.57
57250;BME280;43102;52.014;-0.680;2022-11-20T04:11:08;99883;;;7.70;80.64
57250;BME280;43102;52.014;-0.680;2022-11-20T04:12:00;99883;;;7.70;80.64
57250;BME280;43102;52.014;-0.680;2022-11-20T04:13:00;99883;;;7.70;80.64
57250;BME280;43102;52.014;-0.680;2022-11-20T04:14:01;99883;;;7.70;80.64
57250;BME280;43102;52.014;-0.680;2022-11-20T04:15:00;99883;;;7.70;80.64
57250;BME280;43102;52.014;-0.680;2022-11-20T04:16:00;99879;;;7.73;80.56
57250;BME280;43102;52.014;-0.680;2022-11-20T04:17:00;99879;;;7.73;80.56
57250;BME280;43102;52.014;-0.680;2022-11-20T04:18:00;99879;;;7.73;80.56
57250;BME280;43102;52.014;-0.680;2022-11-20T04:19:00;99879;;;7.73;80.56
57250;BME280;43102;52.014;-0.680;2022-11-20T04:20:00;99879;;;7.73;80.56
57250;BME280;43102;52.014;-0.680;2022-11-20T04:21:00;99870;;;7.73;80.73
57250;BME280;43102;52.014;-0.680;2022-11-20T04:22:00;99870;;;7.73;80.73
57250;BME280;43102;52.014;-0.680;2022-11-20T04:23:00;99870;;;7.73;80.73
57250;BME280;43102;52.014;-0.680;2022-11-20T04:24:00;99870;;;7.73;80.73
57250;BME280;43102;52.014;-0.680;2022-11-20T04:25:00;99870;;;7.73;80.73
57250;BME280;43102;52.014;-0.680;2022-11-20T04:26:01;99867;;;7.75;80.73
57250;BME280;43102;52.014;-0.680;2022-11-20T04:27:00;99867;;;7.75;80.73
57250;BME280;43102;52.014;-0.680;2022-11-20T04:28:00;99867;;;7.75;80.73
57250;BME280;43102;52.014;-0.680;2022-11-20T04:29:00;99867;;;7.75;80.73
57250;BME280;43102;52.014;-0.680;2022-11-20T04:30:00;99867;;;7.75;80.73
57250;BME280;43102;52.014;-0.680;2022-11-20T04:31:03;99859;;;7.76;80.86
57250;BME280;43102;52.014;-0.680;2022-11-20T04:32:00;99859;;;7.76;80.86
57250;BME280;43102;52.014;-0.680;2022-11-20T04:33:00;99859;;;7.76;80.86
57250;BME280;43102;52.014;-0.680;2022-11-20T04:34:00;99859;;;7.76;80.86
57250;BME280;43102;52.014;-0.680;2022-11-20T04:35:00;99859;;;7.76;80.86
57250;BME280;43102;52.014;-0.680;2022-11-20T04:36:00;99855;;;7.72;81.35
57250;BME280;43102;52.014;-0.680;2022-11-20T04:37:00;99855;;;7.72;81.35
57250;BME280;43102;52.014;-0.680;2022-11-20T04:38:00;99855;;;7.72;81.35
57250;BME280;43102;52.014;-0.680;2022-11-20T04:39:01;99855;;;7.72;81.35
57250;BME280;43102;52.014;-0.680;2022-11-20T04:40:00;99855;;;7.72;81.35
57250;BME280;43102;52.014;-0.680;2022-11-20T04:41:00;99846;;;7.72;81.65
57250;BME280;43102;52.014;-0.680;2022-11-20T04:42:00;99846;;;7.72;81.65
57250;BME280;43102;52.014;-0.680;2022-11-20T04:43:00;99846;;;7.72;81.65
57250;BME280;43102;52.014;-0.680;2022-11-20T04:44:01;99846;;;7.72;81.65
57250;BME280;43102;52.014;-0.680;2022-11-20T04:45:00;99846;;;7.72;81.65
57250;BME280;43102;52.014;-0.680;2022-11-20T04:46:00;99847;;;7.72;81.90
57250;BME280;43102;52.014;-0.680;2022-11-20T04:47:00;99847;;;7.72;81.90
57250;BME280;43102;52.014;-0.680;2022-11-20T04:48:00;99847;;;7.72;81.90
57250;BME280;43102;52.014;-0.680;2022-11-20T04:49:00;99847;;;7.72;81.90
57250;BME280;43102;52.014;-0.680;2022-11-20T04:50:00;99847;;;7.72;81.90
57250;BME280;43102;52.014;-0.680;2022-11-20T04:51:02;99834;;;7.74;81.91
57250;BME280;43102;52.014;-0.680;2022-11-20T04:52:00;99834;;;7.74;81.91
57250;BME280;43102;52.014;-0.680;2022-11-20T04:53:00;99834;;;7.74;81.91
57250;BME280;43102;52.014;-0.680;2022-11-20T04:54:00;99834;;;7.74;81.91
57250;BME280;43102;52.014;-0.680;2022-11-20T04:55:00;99834;;;7.74;81.91
57250;BME280;43102;52.014;-0.680;2022-11-20T04:56:01;99826;;;7.73;82.16
57250;BME280;43102;52.014;-0.680;2022-11-20T04:57:00;99826;;;7.73;82.16
57250;BME280;43102;52.014;-0.680;2022-11-20T04:58:00;99826;;;7.73;82.16
57250;BME280;43102;52.014;-0.680;2022-11-20T04:59:00;99826;;;7.73;82.16
57250;BME280;43102;52.014;-0.680;2022-11-20T05:00:00;99826;;;7.73;82.16
57250;BME280;43102;52.014;-0.680;2022-11-20T05:01:00;99813;;;7.72;82.63
57250;BME280;43102;52.014;-0.680;2022-11-20T05:02:00;99813;;;7.72;82.63
57250;BME280;43102;52.014;-0.680;2022-11-20T05:03:00;99813;;;7.72;82.63
57250;BME280;43102;52.014;-0.680;2022-11-20T05:04:00;99813;;;7.72;82.63
57250;BME280;43102;52.014;-0.680;2022-11-20T05:05:00;99813;;;7.72;82.63
57250;BME280;43102;52.014;-0.680;2022-11-20T05:06:00;99807;;;7.76;82.62
57250;BME280;43102;52.014;-0.680;2022-11-20T05:07:00;99807;;;7.76;82.62
57250;BME280;43102;52.014;-0.680;2022-11-20T05:08:00;99807;;;7.76;82.62
57250;BME280;43102;52.014;-0.680;2022-11-20T05:09:00;99807;;;7.76;82.62
57250;BME280;43102;52.014;-0.680;2022-11-20T05:10:00;99807;;;7.76;82.62
57250;BME280;43102;52.014;-0.680;2022-11-20T05:11:01;99797;;;7.77;83.09
57250;BME280;43102;52.014;-0.680;2022-11-20T05:12:00;99797;;;7.77;83.09
57250;BME280;43102;52.014;-0.680;2022-11-20T05:13:00;99797;;;7.77;83.09
57250;BME280;43102;52.014;-0.680;2022-11-20T05:14:00;99797;;;7.77;83.09
57250;BME280;43102;52.014;-0.680;2022-11-20T05:15:00;99797;;;7.77;83.09
57250;BME280;43102;52.014;-0.680;2022-11-20T05:16:02;99800;;;7.80;83.35
57250;BME280;43102;52.014;-0.680;2022-11-20T05:17:00;99800;;;7.80;83.35
57250;BME280;43102;52.014;-0.680;2022-11-20T05:18:00;99800;;;7.80;83.35
57250;BME280;43102;52.014;-0.680;2022-11-20T05:19:00;99800;;;7.80;83.35
57250;BME280;43102;52.014;-0.680;2022-11-20T05:20:00;99800;;;7.80;83.35
57250;BME280;43102;52.014;-0.680;2022-11-20T05:21:00;99795;;;7.82;83.37
57250;BME280;43102;52.014;-0.680;2022-11-20T05:22:00;99795;;;7.82;83.37
57250;BME280;43102;52.014;-0.680;2022-11-20T05:23:00;99795;;;7.82;83.37
57250;BME280;43102;52.014;-0.680;2022-11-20T05:24:00;99795;;;7.82;83.37
57250;BME280;43102;52.014;-0.680;2022-11-20T05:25:00;99795;;;7.82;83.37
57250;BME280;43102;52.014;-0.680;2022-11-20T05:26:00;99785;;;7.83;83.40
57250;BME280;43102;52.014;-0.680;2022-11-20T05:27:00;99785;;;7.83;83.40
57250;BME280;43102;52.014;-0.680;2022-11-20T05:28:00;99785;;;7.83;83.40
57250;BME280;43102;52.014;-0.680;2022-11-20T05:29:00;99785;;;7.83;83.40
57250;BME280;43102;52.014;-0.680;2022-11-20T05:30:00;99785;;;7.83;83.40
57250;BME280;43102;52.014;-0.680;2022-11-20T05:31:04;99784;;;7.83;83.57
57250;BME280;43102;52.014;-0.680;2022-11-20T05:32:00;99784;;;7.83;83.57
57250;BME280;43102;52.014;-0.680;2022-11-20T05:33:00;99784;;;7.83;83.57
57250;BME280;43102;52.014;-0.680;2022-11-20T05:34:00;99784;;;7.83;83.57
57250;BME280;43102;52.014;-0.680;2022-11-20T05:35:00;99784;;;7.83;83.57
57250;BME280;43102;52.014;-0.680;2022-11-20T05:36:00;99778;;;7.85;83.78
57250;BME280;43102;52.014;-0.680;2022-11-20T05:37:00;99778;;;7.85;83.78
57250;BME280;43102;52.014;-0.680;2022-11-20T05:38:00;99778;;;7.85;83.78
57250;BME280;43102;52.014;-0.680;2022-11-20T05:39:00;99778;;;7.85;83.78
57250;BME280;43102;52.014;-0.680;2022-11-20T05:40:00;99778;;;7.85;83.78
57250;BME280;43102;52.014;-0.680;2022-11-20T05:41:05;99770;;;7.85;84.14
57250;BME280;43102;52.014;-0.680;2022-11-20T05:42:00;99770;;;7.85;84.14
57250;BME280;43102;52.014;-0.680;2022-11-20T05:43:00;99770;;;7.85;84.14
57250;BME280;43102;52.014;-0.680;2022-11-20T05:44:00;99770;;;7.85;84.14
57250;BME280;43102;52.014;-0.680;2022-11-20T05:45:00;99770;;;7.85;84.14
57250;BME280;43102;52.014;-0.680;2022-11-20T05:46:00;99779;;;7.89;84.13
57250;BME280;43102;52.014;-0.680;2022-11-20T05:47:00;99779;;;7.89;84.13
57250;BME280;43102;52.014;-0.680;2022-11-20T05:48:00;99779;;;7.89;84.13
57250;BME280;43102;52.014;-0.680;2022-11-20T05:49:00;99779;;;7.89;84.13
57250;BME280;43102;52.014;-0.680;2022-11-20T05:50:00;99779;;;7.89;84.13
57250;BME280;43102;52.014;-0.680;2022-11-20T05:51:00;99788;;;7.91;84.23
57250;BME280;43102;52.014;-0.680;2022-11-20T05:52:00;99788;;;7.91;84.23
57250;BME280;43102;52.014;-0.680;2022-11-20T05:53:00;99788;;;7.91;84.23
57250;BME280;43102;52.014;-0.680;2022-11-20T05:54:00;99788;;;7.91;84.23
57250;BME280;43102;52.014;-0.680;2022-11-20T05:55:00;99788;;;7.91;84.23
57250;BME280;43102;52.014;-0.680;2022-11-20T05:56:00;99783;;;7.92;83.91
57250;BME280;43102;52.014;-0.680;2022-11-20T05:57:00;99783;;;7.92;83.91
57250;BME280;43102;52.014;-0.680;2022-11-20T05:58:00;99783;;;7.92;83.91
57250;BME280;43102;52.014;-0.680;2022-11-20T05:59:00;99783;;;7.92;83.91
57250;BME280;43102;52.014;-0.680;2022-11-20T06:00:00;99783;;;7.92;83.91